sensor_id;sensor_type;location;lat;lon;timestamp;P1;durP1;ratioP1;P2;durP2;ratioP2
12921;SDS011;6528;48.086;16.282;2023-03-01T00:00:14;6.70;;;6.20;;
12921;SDS011;6528;48.086;16.282;2023-03-01T00:02:40;7.10;;;6.53;;
12921;SDS011;6528;48.086;16.282;2023-03-01T00:05:07;6.40;;;5.90;;
12921;SDS011;6528;48.086;16.282;2023-03-01T00:07:34;6.30;;;5.80;;
12921;SDS011;6528;48.086;16.282;2023-03-01T00:10:01;5.70;;;5.30;;
12921;SDS011;6528;48.086;16.282;2023-03-01T00:12:28;6.80;;;5.97;;
12921;SDS011;6528;48.086;16.282;2023-03-01T00:14:55;6.33;;;5.83;;
12921;SDS011;6528;48.086;16.282;2023-03-01T00:17:21;6.90;;;6.20;;
12921;SDS011;6528;48.086;16.282;2023-03-01T00:19:48;7.10;;;6.50;;
12921;SDS011;6528;48.086;16.282;2023-03-01T00:22:16;6.90;;;6.30;;
12921;SDS011;6528;48.086;16.282;2023-03-01T00:24:42;6.80;;;6.13;;
12921;SDS011;6528;48.086;16.282;2023-03-01T00:27:09;6.87;;;6.23;;
12921;SDS011;6528;48.086;16.282;2023-03-01T00:29:36;6.63;;;6.10;;
12921;SDS011;6528;48.086;16.282;2023-03-01T00:32:02;5.90;;;5.40;;
12921;SDS011;6528;48.086;16.282;2023-03-01T00:34:29;5.30;;;4.90;;
12921;SDS011;6528;48.086;16.282;2023-03-01T00:36:56;6.73;;;6.23;;
12921;SDS011;6528;48.086;16.282;2023-03-01T00:39:31;5.77;;;5.30;;
12921;SDS011;6528;48.086;16.282;2023-03-01T00:41:59;6.03;;;5.53;;
12921;SDS011;6528;48.086;16.282;2023-03-01T00:44:26;6.53;;;6.00;;
12921;SDS011;6528;48.086;16.282;2023-03-01T00:46:54;6.40;;;5.87;;
12921;SDS011;6528;48.086;16.282;2023-03-01T00:49:21;6.00;;;5.50;;
12921;SDS011;6528;48.086;16.282;2023-03-01T00:51:50;6.47;;;5.97;;
12921;SDS011;6528;48.086;16.282;2023-03-01T00:54:16;6.37;;;5.87;;
12921;SDS011;6528;48.086;16.282;2023-03-01T00:56:43;6.53;;;5.93;;
12921;SDS011;6528;48.086;16.282;2023-03-01T00:59:10;5.73;;;5.33;;
12921;SDS011;6528;48.086;16.282;2023-03-01T01:01:37;5.90;;;5.40;;
12921;SDS011;6528;48.086;16.282;2023-03-01T01:04:05;6.03;;;5.63;;
12921;SDS011;6528;48.086;16.282;2023-03-01T01:06:37;6.13;;;5.63;;
12921;SDS011;6528;48.086;16.282;2023-03-01T01:09:06;6.87;;;6.27;;
12921;SDS011;6528;48.086;16.282;2023-03-01T01:11:33;5.83;;;5.30;;
12921;SDS011;6528;48.086;16.282;2023-03-01T01:14:02;6.13;;;5.63;;
12921;SDS011;6528;48.086;16.282;2023-03-01T01:16:29;5.90;;;5.40;;
12921;SDS011;6528;48.086;16.282;2023-03-01T01:18:57;5.63;;;5.23;;
12921;SDS011;6528;48.086;16.282;2023-03-01T01:21:24;5.60;;;5.20;;
12921;SDS011;6528;48.086;16.282;2023-03-01T01:23:52;6.10;;;5.60;;
12921;SDS011;6528;48.086;16.282;2023-03-01T01:26:20;5.10;;;4.70;;
12921;SDS011;6528;48.086;16.282;2023-03-01T01:28:50;6.40;;;5.80;;
12921;SDS011;6528;48.086;16.282;2023-03-01T01:31:18;6.23;;;5.73;;
12921;SDS011;6528;48.086;16.282;2023-03-01T01:33:45;6.53;;;6.03;;
12921;SDS011;6528;48.086;16.282;2023-03-01T01:36:12;5.83;;;5.43;;
12921;SDS011;6528;48.086;16.282;2023-03-01T01:38:39;5.77;;;5.27;;
12921;SDS011;6528;48.086;16.282;2023-03-01T01:41:08;5.20;;;4.80;;
12921;SDS011;6528;48.086;16.282;2023-03-01T01:43:38;6.13;;;5.63;;
12921;SDS011;6528;48.086;16.282;2023-03-01T01:49:07;5.87;;;5.37;;
12921;SDS011;6528;48.086;16.282;2023-03-01T01:51:51;5.43;;;5.03;;
12921;SDS011;6528;48.086;16.282;2023-03-01T01:54:25;6.40;;;5.90;;
12921;SDS011;6528;48.086;16.282;2023-03-01T01:56:56;5.53;;;5.13;;
12921;SDS011;6528;48.086;16.282;2023-03-01T01:59:26;6.07;;;5.57;;
12921;SDS011;6528;48.086;16.282;2023-03-01T02:01:55;5.40;;;5.00;;
12921;SDS011;6528;48.086;16.282;2023-03-01T02:04:25;5.73;;;5.27;;
12921;SDS011;6528;48.086;16.282;2023-03-01T02:06:58;5.73;;;5.13;;
12921;SDS011;6528;48.086;16.282;2023-03-01T02:09:55;5.37;;;4.97;;
12921;SDS011;6528;48.086;16.282;2023-03-01T02:12:23;5.67;;;5.27;;
12921;SDS011;6528;48.086;16.282;2023-03-01T02:14:50;5.60;;;5.10;;
12921;SDS011;6528;48.086;16.282;2023-03-01T02:17:17;5.27;;;4.87;;
12921;SDS011;6528;48.086;16.282;2023-03-01T02:19:55;5.47;;;5.07;;
12921;SDS011;6528;48.086;16.282;2023-03-01T02:22:33;5.63;;;5.23;;
12921;SDS011;6528;48.086;16.282;2023-03-01T02:25:06;4.97;;;4.57;;
12921;SDS011;6528;48.086;16.282;2023-03-01T02:30:24;5.37;;;4.97;;
12921;SDS011;6528;48.086;16.282;2023-03-01T02:32:52;5.57;;;5.17;;
12921;SDS011;6528;48.086;16.282;2023-03-01T02:35:23;5.40;;;5.00;;
12921;SDS011;6528;48.086;16.282;2023-03-01T02:37:49;6.27;;;5.77;;
12921;SDS011;6528;48.086;16.282;2023-03-01T02:40:17;6.53;;;5.77;;
12921;SDS011;6528;48.086;16.282;2023-03-01T02:42:50;5.60;;;5.20;;
12921;SDS011;6528;48.086;16.282;2023-03-01T02:45:20;5.90;;;5.40;;
12921;SDS011;6528;48.086;16.282;2023-03-01T02:47:47;5.80;;;5.30;;
12921;SDS011;6528;48.086;16.282;2023-03-01T02:52:57;5.10;;;4.70;;
12921;SDS011;6528;48.086;16.282;2023-03-01T02:55:34;6.80;;;6.20;;
12921;SDS011;6528;48.086;16.282;2023-03-01T02:58:01;5.67;;;5.27;;
12921;SDS011;6528;48.086;16.282;2023-03-01T03:17:11;5.20;;;4.80;;
12921;SDS011;6528;48.086;16.282;2023-03-01T03:19:38;5.77;;;5.27;;
12921;SDS011;6528;48.086;16.282;2023-03-01T03:22:05;5.27;;;4.87;;
12921;SDS011;6528;48.086;16.282;2023-03-01T03:24:31;5.43;;;4.93;;
12921;SDS011;6528;48.086;16.282;2023-03-01T03:27:04;5.90;;;5.40;;
12921;SDS011;6528;48.086;16.282;2023-03-01T03:29:32;6.03;;;5.53;;
12921;SDS011;6528;48.086;16.282;2023-03-01T03:31:59;5.73;;;5.23;;
12921;SDS011;6528;48.086;16.282;2023-03-01T03:34:26;5.37;;;4.87;;
12921;SDS011;6528;48.086;16.282;2023-03-01T03:36:53;6.30;;;5.80;;
12921;SDS011;6528;48.086;16.282;2023-03-01T03:39:23;5.20;;;4.80;;
12921;SDS011;6528;48.086;16.282;2023-03-01T03:41:50;5.00;;;4.63;;
12921;SDS011;6528;48.086;16.282;2023-03-01T03:44:16;5.37;;;4.97;;
12921;SDS011;6528;48.086;16.282;2023-03-01T03:46:43;5.40;;;4.90;;
12921;SDS011;6528;48.086;16.282;2023-03-01T03:49:10;5.60;;;5.20;;
12921;SDS011;6528;48.086;16.282;2023-03-01T03:51:37;6.10;;;5.60;;
12921;SDS011;6528;48.086;16.282;2023-03-01T03:54:03;5.60;;;5.10;;
12921;SDS011;6528;48.086;16.282;2023-03-01T03:56:30;5.57;;;5.17;;
12921;SDS011;6528;48.086;16.282;2023-03-01T03:58:57;5.40;;;4.90;;
12921;SDS011;6528;48.086;16.282;2023-03-01T04:01:24;5.90;;;5.40;;
12921;SDS011;6528;48.086;16.282;2023-03-01T04:03:51;5.60;;;5.10;;
12921;SDS011;6528;48.086;16.282;2023-03-01T04:06:20;5.67;;;5.23;;
12921;SDS011;6528;48.086;16.282;2023-03-01T04:08:47;5.43;;;5.03;;
12921;SDS011;6528;48.086;16.282;2023-03-01T04:11:17;6.07;;;5.57;;
12921;SDS011;6528;48.086;16.282;2023-03-01T04:13:55;5.20;;;4.80;;
12921;SDS011;6528;48.086;16.282;2023-03-01T04:16:23;5.83;;;5.43;;
12921;SDS011;6528;48.086;16.282;2023-03-01T04:18:51;5.77;;;5.27;;
12921;SDS011;6528;48.086;16.282;2023-03-01T04:21:19;6.00;;;5.40;;
12921;SDS011;6528;48.086;16.282;2023-03-01T04:23:46;5.57;;;5.17;;
12921;SDS011;6528;48.086;16.282;2023-03-01T04:26:13;5.87;;;5.37;;
12921;SDS011;6528;48.086;16.282;2023-03-01T04:28:40;5.10;;;4.70;;
12921;SDS011;6528;48.086;16.282;2023-03-01T04:31:13;5.20;;;4.80;;
12921;SDS011;6528;48.086;16.282;2023-03-01T04:33:47;5.93;;;5.50;;
12921;SDS011;6528;48.086;16.282;2023-03-01T04:36:19;5.33;;;4.93;;
12921;SDS011;6528;48.086;16.282;2023-03-01T04:38:51;5.10;;;4.70;;
12921;SDS011;6528;48.086;16.282;2023-03-01T04:41:19;6.23;;;5.73;;
12921;SDS011;6528;48.086;16.282;2023-03-01T04:43:48;5.20;;;4.80;;
12921;SDS011;6528;48.086;16.282;2023-03-01T04:46:16;5.27;;;4.67;;
12921;SDS011;6528;48.086;16.282;2023-03-01T04:48:45;5.70;;;5.20;;
12921;SDS011;6528;48.086;16.282;2023-03-01T04:51:13;5.27;;;4.83;;
12921;SDS011;6528;48.086;16.282;2023-03-01T04:53:41;5.23;;;4.73;;
12921;SDS011;6528;48.086;16.282;2023-03-01T04:56:08;5.43;;;5.00;;
12921;SDS011;6528;48.086;16.282;2023-03-01T04:58:35;5.00;;;4.60;;
12921;SDS011;6528;48.086;16.282;2023-03-01T05:01:07;5.47;;;5.00;;
12921;SDS011;6528;48.086;16.282;2023-03-01T05:03:45;4.93;;;4.53;;
12921;SDS011;6528;48.086;16.282;2023-03-01T05:06:14;5.07;;;4.57;;
12921;SDS011;6528;48.086;16.282;2023-03-01T05:08:41;6.13;;;5.53;;
12921;SDS011;6528;48.086;16.282;2023-03-01T05:11:09;5.43;;;5.00;;
12921;SDS011;6528;48.086;16.282;2023-03-01T05:13:37;6.30;;;5.80;;
12921;SDS011;6528;48.086;16.282;2023-03-01T05:16:05;5.70;;;5.30;;
12921;SDS011;6528;48.086;16.282;2023-03-01T05:18:38;4.93;;;4.53;;
12921;SDS011;6528;48.086;16.282;2023-03-01T05:21:07;5.90;;;5.40;;
12921;SDS011;6528;48.086;16.282;2023-03-01T05:23:38;5.40;;;5.00;;
12921;SDS011;6528;48.086;16.282;2023-03-01T05:26:05;6.00;;;5.50;;
12921;SDS011;6528;48.086;16.282;2023-03-01T05:28:47;5.70;;;5.30;;
12921;SDS011;6528;48.086;16.282;2023-03-01T05:31:14;5.70;;;5.20;;
12921;SDS011;6528;48.086;16.282;2023-03-01T05:33:41;6.30;;;5.80;;
12921;SDS011;6528;48.086;16.282;2023-03-01T05:36:09;5.60;;;5.10;;
12921;SDS011;6528;48.086;16.282;2023-03-01T05:38:36;4.87;;;4.47;;
12921;SDS011;6528;48.086;16.282;2023-03-01T05:41:03;5.47;;;4.97;;
12921;SDS011;6528;48.086;16.282;2023-03-01T05:43:30;5.77;;;5.27;;
12921;SDS011;6528;48.086;16.282;2023-03-01T05:46:00;5.90;;;5.40;;
12921;SDS011;6528;48.086;16.282;2023-03-01T05:48:28;5.07;;;4.67;;
12921;SDS011;6528;48.086;16.282;2023-03-01T05:50:57;5.30;;;4.80;;
12921;SDS011;6528;48.086;16.282;2023-03-01T05:53:26;4.70;;;4.40;;
12921;SDS011;6528;48.086;16.282;2023-03-01T05:55:53;6.07;;;5.47;;
12921;SDS011;6528;48.086;16.282;2023-03-01T05:58:20;5.33;;;4.83;;
12921;SDS011;6528;48.086;16.282;2023-03-01T06:00:48;5.27;;;4.97;;
12921;SDS011;6528;48.086;16.282;2023-03-01T06:03:16;5.50;;;5.10;;
12921;SDS011;6528;48.086;16.282;2023-03-01T06:05:44;5.60;;;5.20;;
12921;SDS011;6528;48.086;16.282;2023-03-01T06:08:11;5.80;;;5.40;;
12921;SDS011;6528;48.086;16.282;2023-03-01T06:10:39;5.37;;;4.97;;
12921;SDS011;6528;48.086;16.282;2023-03-01T06:13:07;5.53;;;5.13;;
12921;SDS011;6528;48.086;16.282;2023-03-01T06:15:34;5.90;;;5.40;;
12921;SDS011;6528;48.086;16.282;2023-03-01T06:18:01;5.60;;;5.20;;
12921;SDS011;6528;48.086;16.282;2023-03-01T06:20:28;5.70;;;5.20;;
12921;SDS011;6528;48.086;16.282;2023-03-01T06:22:55;5.83;;;5.40;;
12921;SDS011;6528;48.086;16.282;2023-03-01T06:25:23;5.77;;;5.33;;
12921;SDS011;6528;48.086;16.282;2023-03-01T06:27:51;6.13;;;5.60;;
12921;SDS011;6528;48.086;16.282;2023-03-01T06:30:21;5.70;;;5.20;;
12921;SDS011;6528;48.086;16.282;2023-03-01T06:32:49;6.13;;;5.60;;
12921;SDS011;6528;48.086;16.282;2023-03-01T06:35:16;6.70;;;5.70;;
12921;SDS011;6528;48.086;16.282;2023-03-01T06:37:45;5.60;;;5.10;;
12921;SDS011;6528;48.086;16.282;2023-03-01T06:40:14;5.57;;;5.17;;
12921;SDS011;6528;48.086;16.282;2023-03-01T06:42:42;5.83;;;5.40;;
12921;SDS011;6528;48.086;16.282;2023-03-01T06:45:10;6.33;;;5.73;;
12921;SDS011;6528;48.086;16.282;2023-03-01T06:47:37;8.27;;;7.57;;
12921;SDS011;6528;48.086;16.282;2023-03-01T06:50:04;9.23;;;8.33;;
12921;SDS011;6528;48.086;16.282;2023-03-01T06:52:31;10.63;;;9.63;;
12921;SDS011;6528;48.086;16.282;2023-03-01T06:54:58;10.90;;;9.90;;
12921;SDS011;6528;48.086;16.282;2023-03-01T06:57:25;11.90;;;10.90;;
12921;SDS011;6528;48.086;16.282;2023-03-01T06:59:53;13.20;;;10.23;;
12921;SDS011;6528;48.086;16.282;2023-03-01T07:02:20;12.30;;;11.00;;
12921;SDS011;6528;48.086;16.282;2023-03-01T07:04:48;12.33;;;11.13;;
12921;SDS011;6528;48.086;16.282;2023-03-01T07:07:17;11.77;;;10.67;;
12921;SDS011;6528;48.086;16.282;2023-03-01T07:09:44;12.53;;;11.33;;
12921;SDS011;6528;48.086;16.282;2023-03-01T07:12:12;11.63;;;10.53;;
12921;SDS011;6528;48.086;16.282;2023-03-01T07:14:39;12.00;;;10.87;;
12921;SDS011;6528;48.086;16.282;2023-03-01T07:17:06;13.20;;;11.90;;
12921;SDS011;6528;48.086;16.282;2023-03-01T07:19:33;15.67;;;14.17;;
12921;SDS011;6528;48.086;16.282;2023-03-01T07:22:00;17.23;;;15.53;;
12921;SDS011;6528;48.086;16.282;2023-03-01T07:24:26;20.30;;;15.83;;
12921;SDS011;6528;48.086;16.282;2023-03-01T07:26:53;16.73;;;14.93;;
12921;SDS011;6528;48.086;16.282;2023-03-01T07:29:20;17.93;;;16.03;;
12921;SDS011;6528;48.086;16.282;2023-03-01T07:31:47;18.47;;;16.53;;
12921;SDS011;6528;48.086;16.282;2023-03-01T07:34:14;20.27;;;17.60;;
12921;SDS011;6528;48.086;16.282;2023-03-01T07:36:40;16.70;;;15.03;;
12921;SDS011;6528;48.086;16.282;2023-03-01T07:39:09;19.90;;;16.23;;
12921;SDS011;6528;48.086;16.282;2023-03-01T07:41:37;23.73;;;18.00;;
12921;SDS011;6528;48.086;16.282;2023-03-01T07:44:05;20.77;;;18.53;;
12921;SDS011;6528;48.086;16.282;2023-03-01T07:46:32;23.77;;;18.13;;
12921;SDS011;6528;48.086;16.282;2023-03-01T07:48:59;21.93;;;19.30;;
12921;SDS011;6528;48.086;16.282;2023-03-01T07:51:26;21.97;;;19.50;;
12921;SDS011;6528;48.086;16.282;2023-03-01T07:53:53;21.57;;;17.03;;
12921;SDS011;6528;48.086;16.282;2023-03-01T07:56:20;20.97;;;18.67;;
12921;SDS011;6528;48.086;16.282;2023-03-01T07:58:48;21.60;;;18.37;;
12921;SDS011;6528;48.086;16.282;2023-03-01T08:01:17;21.40;;;19.10;;
12921;SDS011;6528;48.086;16.282;2023-03-01T08:03:45;19.83;;;17.73;;
12921;SDS011;6528;48.086;16.282;2023-03-01T08:06:13;24.93;;;18.80;;
12921;SDS011;6528;48.086;16.282;2023-03-01T08:08:43;21.60;;;19.30;;
12921;SDS011;6528;48.086;16.282;2023-03-01T08:11:11;24.33;;;18.93;;
12921;SDS011;6528;48.086;16.282;2023-03-01T08:13:39;22.43;;;17.60;;
12921;SDS011;6528;48.086;16.282;2023-03-01T08:16:07;22.17;;;18.23;;
12921;SDS011;6528;48.086;16.282;2023-03-01T08:18:39;20.27;;;17.90;;
12921;SDS011;6528;48.086;16.282;2023-03-01T08:21:10;22.57;;;18.40;;
12921;SDS011;6528;48.086;16.282;2023-03-01T08:23:42;21.37;;;18.70;;
12921;SDS011;6528;48.086;16.282;2023-03-01T08:26:10;20.60;;;17.87;;
12921;SDS011;6528;48.086;16.282;2023-03-01T08:28:43;19.50;;;16.97;;
12921;SDS011;6528;48.086;16.282;2023-03-01T08:31:23;18.50;;;16.40;;
12921;SDS011;6528;48.086;16.282;2023-03-01T08:33:54;18.77;;;16.50;;
12921;SDS011;6528;48.086;16.282;2023-03-01T08:36:24;24.93;;;15.27;;
12921;SDS011;6528;48.086;16.282;2023-03-01T08:38:59;19.13;;;16.90;;
12921;SDS011;6528;48.086;16.282;2023-03-01T08:41:26;20.93;;;16.73;;
12921;SDS011;6528;48.086;16.282;2023-03-01T08:43:53;21.27;;;16.23;;
12921;SDS011;6528;48.086;16.282;2023-03-01T08:46:28;23.40;;;17.40;;
12921;SDS011;6528;48.086;16.282;2023-03-01T08:48:57;18.70;;;16.70;;
12921;SDS011;6528;48.086;16.282;2023-03-01T08:51:24;19.47;;;16.90;;
12921;SDS011;6528;48.086;16.282;2023-03-01T08:53:52;20.47;;;18.20;;
12921;SDS011;6528;48.086;16.282;2023-03-01T08:56:18;20.67;;;18.57;;
12921;SDS011;6528;48.086;16.282;2023-03-01T08:58:46;21.53;;;19.20;;
12921;SDS011;6528;48.086;16.282;2023-03-01T09:01:15;22.93;;;20.40;;
12921;SDS011;6528;48.086;16.282;2023-03-01T09:03:43;21.20;;;18.00;;
12921;SDS011;6528;48.086;16.282;2023-03-01T09:06:11;21.40;;;18.00;;
12921;SDS011;6528;48.086;16.282;2023-03-01T09:08:39;21.23;;;19.13;;
12921;SDS011;6528;48.086;16.282;2023-03-01T09:11:09;19.73;;;17.63;;
12921;SDS011;6528;48.086;16.282;2023-03-01T09:13:37;20.70;;;17.30;;
12921;SDS011;6528;48.086;16.282;2023-03-01T09:16:04;20.13;;;18.17;;
12921;SDS011;6528;48.086;16.282;2023-03-01T09:18:33;18.00;;;16.17;;
12921;SDS011;6528;48.086;16.282;2023-03-01T09:21:01;19.30;;;17.30;;
12921;SDS011;6528;48.086;16.282;2023-03-01T09:23:37;18.40;;;16.43;;
12921;SDS011;6528;48.086;16.282;2023-03-01T09:26:08;19.53;;;17.63;;
12921;SDS011;6528;48.086;16.282;2023-03-01T09:28:42;19.43;;;17.43;;
12921;SDS011;6528;48.086;16.282;2023-03-01T09:31:11;19.17;;;16.97;;
12921;SDS011;6528;48.086;16.282;2023-03-01T09:33:39;17.37;;;15.67;;
12921;SDS011;6528;48.086;16.282;2023-03-01T09:36:08;19.10;;;16.30;;
12921;SDS011;6528;48.086;16.282;2023-03-01T09:38:40;16.67;;;15.07;;
12921;SDS011;6528;48.086;16.282;2023-03-01T09:41:11;16.57;;;14.97;;
12921;SDS011;6528;48.086;16.282;2023-03-01T09:44:12;16.23;;;14.63;;
12921;SDS011;6528;48.086;16.282;2023-03-01T09:46:40;17.03;;;15.30;;
12921;SDS011;6528;48.086;16.282;2023-03-01T09:49:14;16.67;;;14.83;;
12921;SDS011;6528;48.086;16.282;2023-03-01T09:51:50;16.13;;;14.57;;
12921;SDS011;6528;48.086;16.282;2023-03-01T09:54:38;16.90;;;15.13;;
12921;SDS011;6528;48.086;16.282;2023-03-01T09:57:14;17.37;;;14.90;;
12921;SDS011;6528;48.086;16.282;2023-03-01T10:02:23;14.77;;;13.27;;
12921;SDS011;6528;48.086;16.282;2023-03-01T10:05:05;16.87;;;13.67;;
12921;SDS011;6528;48.086;16.282;2023-03-01T10:07:40;15.97;;;14.40;;
12921;SDS011;6528;48.086;16.282;2023-03-01T10:10:27;13.80;;;12.53;;
12921;SDS011;6528;48.086;16.282;2023-03-01T10:13:00;13.80;;;12.50;;
12921;SDS011;6528;48.086;16.282;2023-03-01T10:15:41;14.67;;;13.27;;
12921;SDS011;6528;48.086;16.282;2023-03-01T10:18:18;14.97;;;12.60;;
12921;SDS011;6528;48.086;16.282;2023-03-01T10:21:01;13.83;;;12.53;;
12921;SDS011;6528;48.086;16.282;2023-03-01T10:23:39;13.93;;;12.60;;
12921;SDS011;6528;48.086;16.282;2023-03-01T10:29:09;14.10;;;12.70;;
12921;SDS011;6528;48.086;16.282;2023-03-01T10:34:33;12.83;;;11.53;;
12921;SDS011;6528;48.086;16.282;2023-03-01T10:39:36;13.33;;;12.03;;
12921;SDS011;6528;48.086;16.282;2023-03-01T10:42:04;13.23;;;11.93;;
12921;SDS011;6528;48.086;16.282;2023-03-01T10:44:45;11.80;;;10.67;;
12921;SDS011;6528;48.086;16.282;2023-03-01T10:47:15;13.73;;;12.50;;
12921;SDS011;6528;48.086;16.282;2023-03-01T10:49:59;14.13;;;12.50;;
12921;SDS011;6528;48.086;16.282;2023-03-01T10:52:30;13.07;;;11.87;;
12921;SDS011;6528;48.086;16.282;2023-03-01T10:55:19;12.53;;;11.23;;
12921;SDS011;6528;48.086;16.282;2023-03-01T11:00:48;12.47;;;11.27;;
12921;SDS011;6528;48.086;16.282;2023-03-01T11:03:24;13.33;;;12.00;;
12921;SDS011;6528;48.086;16.282;2023-03-01T11:05:56;13.33;;;12.10;;
12921;SDS011;6528;48.086;16.282;2023-03-01T11:11:12;12.33;;;10.73;;
12921;SDS011;6528;48.086;16.282;2023-03-01T11:13:50;11.83;;;10.63;;
12921;SDS011;6528;48.086;16.282;2023-03-01T11:16:41;12.43;;;11.23;;
12921;SDS011;6528;48.086;16.282;2023-03-01T11:24:52;12.00;;;10.80;;
12921;SDS011;6528;48.086;16.282;2023-03-01T11:27:36;13.13;;;11.40;;
12921;SDS011;6528;48.086;16.282;2023-03-01T11:30:17;12.03;;;10.73;;
12921;SDS011;6528;48.086;16.282;2023-03-01T11:35:49;11.77;;;10.67;;
12921;SDS011;6528;48.086;16.282;2023-03-01T11:38:25;11.97;;;10.87;;
12921;SDS011;6528;48.086;16.282;2023-03-01T11:52:22;10.60;;;9.60;;
12921;SDS011;6528;48.086;16.282;2023-03-01T12:00:23;11.87;;;10.77;;
12921;SDS011;6528;48.086;16.282;2023-03-01T12:03:07;11.07;;;9.97;;
12921;SDS011;6528;48.086;16.282;2023-03-01T12:08:32;10.30;;;9.40;;
12921;SDS011;6528;48.086;16.282;2023-03-01T12:13:56;10.57;;;9.57;;
12921;SDS011;6528;48.086;16.282;2023-03-01T12:19:54;9.53;;;8.63;;
12921;SDS011;6528;48.086;16.282;2023-03-01T12:25:16;9.87;;;9.07;;
12921;SDS011;6528;48.086;16.282;2023-03-01T12:44:54;9.83;;;8.93;;
12921;SDS011;6528;48.086;16.282;2023-03-01T12:47:50;9.60;;;8.73;;
12921;SDS011;6528;48.086;16.282;2023-03-01T12:50:46;9.83;;;9.03;;
12921;SDS011;6528;48.086;16.282;2023-03-01T12:56:01;9.30;;;8.43;;
12921;SDS011;6528;48.086;16.282;2023-03-01T13:01:36;9.40;;;8.60;;
12921;SDS011;6528;48.086;16.282;2023-03-01T13:04:19;9.50;;;8.60;;
12921;SDS011;6528;48.086;16.282;2023-03-01T13:10:27;9.03;;;8.23;;
12921;SDS011;6528;48.086;16.282;2023-03-01T13:15:38;8.80;;;8.10;;
12921;SDS011;6528;48.086;16.282;2023-03-01T13:31:01;8.77;;;8.00;;
12921;SDS011;6528;48.086;16.282;2023-03-01T13:36:00;7.77;;;7.10;;
12921;SDS011;6528;48.086;16.282;2023-03-01T13:46:47;7.27;;;6.67;;
12921;SDS011;6528;48.086;16.282;2023-03-01T13:49:20;7.70;;;7.10;;
12921;SDS011;6528;48.086;16.282;2023-03-01T13:51:50;8.07;;;7.30;;
12921;SDS011;6528;48.086;16.282;2023-03-01T13:54:26;8.90;;;8.10;;
12921;SDS011;6528;48.086;16.282;2023-03-01T13:56:57;8.20;;;7.53;;
12921;SDS011;6528;48.086;16.282;2023-03-01T13:59:25;8.20;;;7.50;;
12921;SDS011;6528;48.086;16.282;2023-03-01T14:01:53;8.50;;;7.70;;
12921;SDS011;6528;48.086;16.282;2023-03-01T14:04:32;7.10;;;6.60;;
12921;SDS011;6528;48.086;16.282;2023-03-01T14:07:08;8.13;;;7.33;;
12921;SDS011;6528;48.086;16.282;2023-03-01T14:09:40;7.60;;;7.00;;
12921;SDS011;6528;48.086;16.282;2023-03-01T14:15:08;7.77;;;7.17;;
12921;SDS011;6528;48.086;16.282;2023-03-01T14:17:57;8.20;;;7.40;;
12921;SDS011;6528;48.086;16.282;2023-03-01T14:20:33;7.67;;;7.07;;
12921;SDS011;6528;48.086;16.282;2023-03-01T14:23:10;6.73;;;6.23;;
12921;SDS011;6528;48.086;16.282;2023-03-01T14:25:45;7.20;;;6.60;;
12921;SDS011;6528;48.086;16.282;2023-03-01T14:28:18;8.07;;;7.40;;
12921;SDS011;6528;48.086;16.282;2023-03-01T14:30:51;7.07;;;6.47;;
12921;SDS011;6528;48.086;16.282;2023-03-01T14:35:56;7.87;;;7.07;;
12921;SDS011;6528;48.086;16.282;2023-03-01T14:38:28;7.93;;;7.23;;
12921;SDS011;6528;48.086;16.282;2023-03-01T14:40:59;7.93;;;7.27;;
12921;SDS011;6528;48.086;16.282;2023-03-01T14:43:47;7.93;;;7.30;;
12921;SDS011;6528;48.086;16.282;2023-03-01T14:51:37;7.50;;;6.80;;
12921;SDS011;6528;48.086;16.282;2023-03-01T14:56:59;7.90;;;6.70;;
12921;SDS011;6528;48.086;16.282;2023-03-01T14:59:27;7.73;;;7.00;;
12921;SDS011;6528;48.086;16.282;2023-03-01T15:01:55;7.43;;;6.80;;
12921;SDS011;6528;48.086;16.282;2023-03-01T15:04:24;8.33;;;7.63;;
12921;SDS011;6528;48.086;16.282;2023-03-01T15:06:54;7.13;;;6.53;;
12921;SDS011;6528;48.086;16.282;2023-03-01T15:09:28;7.33;;;6.73;;
12921;SDS011;6528;48.086;16.282;2023-03-01T15:11:55;6.90;;;6.30;;
12921;SDS011;6528;48.086;16.282;2023-03-01T15:14:25;6.83;;;6.30;;
12921;SDS011;6528;48.086;16.282;2023-03-01T15:17:16;6.63;;;6.07;;
12921;SDS011;6528;48.086;16.282;2023-03-01T15:19:50;6.90;;;6.37;;
12921;SDS011;6528;48.086;16.282;2023-03-01T15:22:17;7.20;;;6.60;;
12921;SDS011;6528;48.086;16.282;2023-03-01T15:24:53;6.97;;;6.47;;
12921;SDS011;6528;48.086;16.282;2023-03-01T15:27:21;7.20;;;6.60;;
12921;SDS011;6528;48.086;16.282;2023-03-01T15:29:57;7.10;;;6.50;;
12921;SDS011;6528;48.086;16.282;2023-03-01T15:32:33;6.57;;;6.07;;
12921;SDS011;6528;48.086;16.282;2023-03-01T15:40:55;7.00;;;6.40;;
12921;SDS011;6528;48.086;16.282;2023-03-01T15:43:43;7.67;;;7.03;;
12921;SDS011;6528;48.086;16.282;2023-03-01T15:46:18;7.70;;;6.80;;
12921;SDS011;6528;48.086;16.282;2023-03-01T15:48:51;7.50;;;6.80;;
12921;SDS011;6528;48.086;16.282;2023-03-01T15:51:22;7.33;;;6.67;;
12921;SDS011;6528;48.086;16.282;2023-03-01T15:53:55;6.43;;;5.93;;
12921;SDS011;6528;48.086;16.282;2023-03-01T15:56:24;7.03;;;6.50;;
12921;SDS011;6528;48.086;16.282;2023-03-01T15:58:51;7.13;;;6.53;;
12921;SDS011;6528;48.086;16.282;2023-03-01T16:01:18;7.30;;;6.70;;
12921;SDS011;6528;48.086;16.282;2023-03-01T16:03:44;6.53;;;6.03;;
12921;SDS011;6528;48.086;16.282;2023-03-01T16:06:11;7.57;;;6.90;;
12921;SDS011;6528;48.086;16.282;2023-03-01T16:08:38;7.23;;;6.53;;
12921;SDS011;6528;48.086;16.282;2023-03-01T16:11:09;7.40;;;6.70;;
12921;SDS011;6528;48.086;16.282;2023-03-01T16:13:40;7.20;;;6.50;;
12921;SDS011;6528;48.086;16.282;2023-03-01T16:16:08;8.03;;;7.20;;
12921;SDS011;6528;48.086;16.282;2023-03-01T16:18:38;7.20;;;6.60;;
12921;SDS011;6528;48.086;16.282;2023-03-01T16:21:05;6.47;;;5.90;;
12921;SDS011;6528;48.086;16.282;2023-03-01T16:23:32;7.23;;;6.63;;
12921;SDS011;6528;48.086;16.282;2023-03-01T16:25:59;7.70;;;7.00;;
12921;SDS011;6528;48.086;16.282;2023-03-01T16:28:26;8.07;;;7.37;;
12921;SDS011;6528;48.086;16.282;2023-03-01T16:30:55;7.20;;;6.60;;
12921;SDS011;6528;48.086;16.282;2023-03-01T16:33:22;7.93;;;7.20;;
12921;SDS011;6528;48.086;16.282;2023-03-01T16:35:57;7.00;;;6.30;;
12921;SDS011;6528;48.086;16.282;2023-03-01T16:38:26;6.80;;;6.20;;
12921;SDS011;6528;48.086;16.282;2023-03-01T16:40:52;7.50;;;6.80;;
12921;SDS011;6528;48.086;16.282;2023-03-01T16:43:19;6.77;;;6.17;;
12921;SDS011;6528;48.086;16.282;2023-03-01T16:45:46;7.37;;;6.77;;
12921;SDS011;6528;48.086;16.282;2023-03-01T16:48:13;7.70;;;7.00;;
12921;SDS011;6528;48.086;16.282;2023-03-01T16:50:40;6.97;;;6.37;;
12921;SDS011;6528;48.086;16.282;2023-03-01T16:53:07;6.90;;;6.30;;
12921;SDS011;6528;48.086;16.282;2023-03-01T16:55:34;7.47;;;6.77;;
12921;SDS011;6528;48.086;16.282;2023-03-01T16:58:01;7.60;;;6.97;;
12921;SDS011;6528;48.086;16.282;2023-03-01T17:00:28;6.47;;;5.97;;
12921;SDS011;6528;48.086;16.282;2023-03-01T17:02:55;6.97;;;6.37;;
12921;SDS011;6528;48.086;16.282;2023-03-01T17:05:21;7.80;;;7.10;;
12921;SDS011;6528;48.086;16.282;2023-03-01T17:07:50;7.87;;;7.17;;
12921;SDS011;6528;48.086;16.282;2023-03-01T17:10:17;7.67;;;6.97;;
12921;SDS011;6528;48.086;16.282;2023-03-01T17:12:44;6.70;;;6.10;;
12921;SDS011;6528;48.086;16.282;2023-03-01T17:15:13;7.83;;;7.03;;
12921;SDS011;6528;48.086;16.282;2023-03-01T17:17:40;6.60;;;6.00;;
12921;SDS011;6528;48.086;16.282;2023-03-01T17:20:07;7.43;;;6.80;;
12921;SDS011;6528;48.086;16.282;2023-03-01T17:22:35;6.50;;;5.90;;
12921;SDS011;6528;48.086;16.282;2023-03-01T17:25:02;7.17;;;6.57;;
12921;SDS011;6528;48.086;16.282;2023-03-01T17:27:29;7.13;;;6.60;;
12921;SDS011;6528;48.086;16.282;2023-03-01T17:30:00;6.97;;;6.37;;